Time;durP1;ratioP1;P1;durP2;ratioP2;P2;SDS_P1;SDS_P2;PMS_P1;PMS_P2;Temp;Humidity;BMP_temperature;BMP_pressure;BME280_temperature;BME280_humidity;BME280_pressure;Samples;Min_cycle;Max_cycle;Signal;HPM_P1;HPM_P2
2023/01/25 00:01:47;;;;;;;10.60;6.90;;;;;;;3.37;100.00;95982.50;5053901;28;20833;-80
2023/01/25 00:04:13;;;;;;;9.63;6.47;;;;;;;3.44;100.00;95990.88;5053693;28;20437;-80
2023/01/25 00:06:40;;;;;;;10.20;6.70;;;;;;;3.23;100.00;95991.75;5018398;28;20481;-80
2023/01/25 00:09:07;;;;;;;8.63;5.97;;;;;;;3.24;100.00;95998.63;5018304;28;20464;-81
2023/01/25 00:11:36;;;;;;;15.30;9.30;;;;;;;3.19;100.00;95995.38;5053299;28;20449;-80
2023/01/25 00:14:03;;;;;;;6.37;4.97;;;;;;;3.03;100.00;95990.75;5053046;28;20441;-80
2023/01/25 00:16:30;;;;;;;7.10;5.50;;;;;;;3.16;100.00;95990.25;5053152;28;20499;-80
2023/01/25 00:18:57;;;;;;;8.30;5.33;;;;;;;3.07;100.00;95987.13;5053386;28;20449;-80
2023/01/25 00:21:26;;;;;;;7.73;6.17;;;;;;;3.20;100.00;95991.88;5053289;28;20449;-80
2023/01/25 00:23:52;;;;;;;5.83;5.27;;;;;;;3.14;100.00;95990.31;5052966;28;20456;-81
2023/01/25 00:26:20;;;;;;;6.20;5.13;;;;;;;3.03;100.00;95988.16;5052404;28;20489;-80
2023/01/25 00:28:50;;;;;;;9.90;6.40;;;;;;;3.07;100.00;95986.28;5052476;28;20566;-80
2023/01/25 00:31:25;;;;;;;11.17;6.97;;;;;;;3.12;100.00;95984.34;5052670;28;21007;-80
2023/01/25 00:34:01;;;;;;;8.97;6.43;;;;;;;3.13;100.00;95990.38;5052596;28;20452;-80
2023/01/25 00:36:33;;;;;;;6.67;5.93;;;;;;;3.05;100.00;95986.34;5052677;28;20525;-80
2023/01/25 00:39:00;;;;;;;8.30;6.00;;;;;;;3.02;100.00;95985.63;5052935;28;20473;-80
2023/01/25 00:41:27;;;;;;;7.50;6.03;;;;;;;2.87;100.00;95987.03;5052797;28;20860;-80
2023/01/25 00:43:55;;;;;;;8.60;6.50;;;;;;;2.96;100.00;95989.28;5053145;28;20449;-80
2023/01/25 00:46:22;;;;;;;6.47;5.20;;;;;;;2.97;100.00;95978.03;5052586;28;20484;-80
2023/01/25 00:48:49;;;;;;;8.13;5.40;;;;;;;2.98;100.00;95989.22;5052572;28;20453;-81
2023/01/25 00:51:16;;;;;;;7.13;5.10;;;;;;;2.99;100.00;95985.72;5052473;28;20445;-80
2023/01/25 00:53:43;;;;;;;8.77;6.10;;;;;;;2.99;100.00;95988.31;5052869;28;20441;-80
2023/01/25 00:56:09;;;;;;;6.90;4.93;;;;;;;2.87;100.00;95989.63;5052748;28;20456;-80
2023/01/25 00:58:36;;;;;;;6.70;5.17;;;;;;;2.68;100.00;95988.63;5052620;28;20446;-80
2023/01/25 01:01:05;;;;;;;7.47;5.23;;;;;;;2.80;100.00;95993.34;5052232;28;20453;-80
2023/01/25 01:03:31;;;;;;;8.17;5.20;;;;;;;2.87;100.00;95988.75;5000941;28;20452;-81
2023/01/25 01:06:03;;;;;;;9.00;5.97;;;;;;;2.85;100.00;95980.22;5052384;28;20511;-80
2023/01/25 01:08:33;;;;;;;8.20;6.23;;;;;;;2.89;100.00;95982.66;5052320;28;20441;-80
2023/01/25 01:11:01;;;;;;;8.30;6.67;;;;;;;2.79;100.00;95986.47;5052127;28;20441;-80
2023/01/25 01:13:28;;;;;;;10.67;6.03;;;;;;;2.66;100.00;95985.25;5052313;28;20867;-80
2023/01/25 01:15:55;;;;;;;8.70;5.70;;;;;;;2.51;100.00;95985.78;5000520;28;20433;-80
2023/01/25 01:18:23;;;;;;;7.93;5.30;;;;;;;2.55;100.00;95989.94;5052389;28;20848;-80
2023/01/25 01:20:50;;;;;;;8.23;5.70;;;;;;;2.51;100.00;95983.19;5052291;28;20468;-80
2023/01/25 01:23:17;;;;;;;8.20;6.30;;;;;;;2.65;100.00;95986.97;5052227;28;20445;-80
2023/01/25 01:25:44;;;;;;;9.20;5.80;;;;;;;2.62;100.00;95983.66;5052000;28;20465;-80
2023/01/25 01:28:11;;;;;;;6.30;5.17;;;;;;;2.55;100.00;95988.19;5052387;28;20449;-80
2023/01/25 01:30:38;;;;;;;7.80;5.97;;;;;;;2.48;100.00;95982.41;5052172;28;20449;-80
2023/01/25 01:33:05;;;;;;;6.30;4.93;;;;;;;2.35;100.00;95970.78;5052039;28;20456;-80
2023/01/25 01:35:34;;;;;;;6.93;5.60;;;;;;;2.17;100.00;95967.09;5052105;28;20957;-80
2023/01/25 01:38:00;;;;;;;6.93;4.43;;;;;;;2.34;100.00;95974.28;5051696;28;20936;-80
2023/01/25 01:40:27;;;;;;;7.60;5.30;;;;;;;2.27;100.00;95975.38;5056198;28;20448;-80
2023/01/25 01:42:59;;;;;;;9.67;5.33;;;;;;;2.33;100.00;95972.59;5056004;28;20445;-80
2023/01/25 01:45:50;;;;;;;8.13;5.90;;;;;;;2.36;100.00;95969.91;5055899;28;20452;-80
2023/01/25 01:48:21;;;;;;;5.50;4.57;;;;;;;2.27;100.00;95967.59;5056221;28;20497;-80
2023/01/25 01:50:53;;;;;;;4.50;4.10;;;;;;;2.38;100.00;95962.91;5056060;28;20554;-80
2023/01/25 01:53:21;;;;;;;6.93;5.03;;;;;;;2.48;100.00;95959.09;5020749;28;20494;-80
2023/01/25 01:55:48;;;;;;;7.73;5.73;;;;;;;2.53;100.00;95964.09;5056326;28;20449;-80
2023/01/25 01:58:15;;;;;;;5.83;5.33;;;;;;;2.40;100.00;95953.34;5055937;28;20876;-80
2023/01/25 02:00:42;;;;;;;6.47;4.83;;;;;;;2.47;100.00;95969.50;5055921;28;20449;-80
2023/01/25 02:03:10;;;;;;;11.47;4.57;;;;;;;2.40;100.00;95963.69;5055877;28;20947;-80
2023/01/25 02:05:44;;;;;;;7.93;4.50;;;;;;;2.24;100.00;95965.13;5056027;28;20437;-80
2023/01/25 02:08:14;;;;;;;6.30;4.83;;;;;;;2.37;100.00;95963.81;5055567;28;20983;-81
2023/01/25 02:10:43;;;;;;;4.47;4.07;;;;;;;2.36;100.00;95953.50;5055663;28;20452;-80
2023/01/25 02:13:11;;;;;;;19.47;7.57;;;;;;;2.43;100.00;95967.94;5055580;28;20453;-80
2023/01/25 02:15:41;;;;;;;15.07;6.80;;;;;;;2.38;100.00;95947.38;5055430;28;20947;-80
2023/01/25 02:18:09;;;;;;;11.60;5.43;;;;;;;2.45;100.00;95964.38;5055439;28;20519;-80
2023/01/25 02:20:38;;;;;;;5.50;4.50;;;;;;;2.48;100.00;95958.25;5055314;28;20445;-80
2023/01/25 02:23:16;;;;;;;4.07;3.53;;;;;;;2.41;100.00;95967.97;5020164;28;20859;-80
2023/01/25 02:25:44;;;;;;;4.10;3.60;;;;;;;2.46;100.00;95967.81;5055278;28;20468;-80
2023/01/25 02:28:15;;;;;;;4.87;3.97;;;;;;;2.40;100.00;95963.69;5054948;28;20485;-80
2023/01/25 02:30:43;;;;;;;3.33;3.03;;;;;;;2.31;100.00;95964.00;5020816;28;20433;-80
2023/01/25 02:33:10;;;;;;;4.30;3.70;;;;;;;2.27;100.00;95956.41;5055002;28;21009;-80
2023/01/25 02:35:40;;;;;;;4.13;3.60;;;;;;;2.25;100.00;95969.41;5055356;28;20445;-80
2023/01/25 02:38:08;;;;;;;7.00;3.70;;;;;;;2.16;100.00;95965.41;5054911;28;20966;-80
2023/01/25 02:40:43;;;;;;;3.60;3.30;;;;;;;2.22;100.00;95963.50;5054853;28;20499;-80
2023/01/25 02:43:11;;;;;;;3.37;3.10;;;;;;;2.28;100.00;95968.44;5054928;28;20479;-80
2023/01/25 02:45:38;;;;;;;6.47;4.47;;;;;;;2.26;100.00;95957.31;5054717;28;20453;-80
2023/01/25 02:48:05;;;;;;;4.93;4.10;;;;;;;2.26;100.00;95950.38;5054740;28;21033;-80
2023/01/25 02:50:32;;;;;;;4.57;2.90;;;;;;;2.19;100.00;95956.69;5002684;28;20468;-80
2023/01/25 02:52:59;;;;;;;3.83;3.43;;;;;;;2.31;100.00;95961.41;5054894;28;20495;-80
2023/01/25 02:55:26;;;;;;;5.17;3.73;;;;;;;2.44;100.00;95961.84;5054648;28;20438;-80
2023/01/25 02:57:52;;;;;;;7.33;3.97;;;;;;;2.36;100.00;95966.47;5054776;28;20465;-80
2023/01/25 03:00:21;;;;;;;4.60;3.73;;;;;;;2.37;100.00;95965.56;5054421;28;20944;-80
2023/01/25 03:02:48;;;;;;;5.63;3.50;;;;;;;2.21;100.00;95967.81;5054607;28;20990;-80
2023/01/25 03:05:15;;;;;;;4.00;3.60;;;;;;;2.18;100.00;95960.16;5054599;28;20441;-80
2023/01/25 03:07:42;;;;;;;4.03;3.20;;;;;;;2.17;100.00;95956.75;5054438;28;20492;-81
2023/01/25 03:10:10;;;;;;;4.67;3.00;;;;;;;1.90;100.00;95974.94;5054225;28;20457;-81
2023/01/25 03:12:37;;;;;;;4.05;3.72;;;;;;;2.00;100.00;95972.00;5003771;28;20510;-81
2023/01/25 03:15:04;;;;;;;5.10;3.53;;;;;;;1.98;100.00;95970.34;5054411;28;20661;-81
2023/01/25 03:17:32;;;;;;;4.70;3.40;;;;;;;2.11;100.00;95967.31;5003177;28;20449;-80
2023/01/25 03:19:59;;;;;;;4.47;3.40;;;;;;;1.98;100.00;95966.03;5054648;28;20451;-81
2023/01/25 03:22:26;;;;;;;6.87;4.77;;;;;;;2.22;100.00;95953.97;5054349;28;20198;-81
2023/01/25 03:24:53;;;;;;;6.77;3.60;;;;;;;2.21;100.00;95952.28;5054354;28;20488;-80
2023/01/25 03:27:19;;;;;;;5.40;3.60;;;;;;;2.39;100.00;95951.66;5054122;28;20473;-81
2023/01/25 03:29:46;;;;;;;3.87;3.40;;;;;;;2.16;100.00;95959.38;5054413;28;20453;-81
2023/01/25 03:32:13;;;;;;;6.20;4.10;;;;;;;2.01;100.00;95958.16;5054480;28;20441;-80
2023/01/25 03:34:41;;;;;;;4.40;3.43;;;;;;;2.16;100.00;95956.78;5002436;28;20449;-81
2023/01/25 03:37:08;;;;;;;4.33;3.87;;;;;;;2.31;100.00;95957.97;5054654;28;20437;-81
2023/01/25 03:39:35;;;;;;;5.20;3.27;;;;;;;2.12;100.00;95962.97;5054424;28;20778;-80
2023/01/25 03:42:01;;;;;;;4.50;3.47;;;;;;;2.29;100.00;95958.03;5054058;28;20444;-80
2023/01/25 03:44:28;;;;;;;4.13;3.33;;;;;;;2.30;100.00;95961.47;5054755;28;20836;-81
2023/01/25 03:46:55;;;;;;;4.40;3.67;;;;;;;2.13;100.00;95960.34;5054274;28;20821;-81
2023/01/25 03:49:22;;;;;;;2.43;2.20;;;;;;;2.15;100.00;95953.34;5053980;28;20457;-81
2023/01/25 03:51:50;;;;;;;5.03;4.13;;;;;;;2.32;100.00;95950.19;5053969;28;20453;-81
2023/01/25 03:54:17;;;;;;;5.90;4.10;;;;;;;2.34;100.00;95956.16;5053519;28;20452;-81
2023/01/25 03:56:43;;;;;;;5.40;3.60;;;;;;;2.36;100.00;95951.75;5054013;28;20438;-81
2023/01/25 03:59:11;;;;;;;3.57;2.80;;;;;;;2.28;100.00;95946.00;5053845;28;20450;-81
2023/01/25 04:01:38;;;;;;;4.73;3.40;;;;;;;2.38;100.00;95947.38;5053668;28;21015;-81
2023/01/25 04:04:05;;;;;;;3.40;3.10;;;;;;;2.40;100.00;95950.75;5053699;28;20499;-81
2023/01/25 04:06:32;;;;;;;4.60;3.57;;;;;;;2.43;100.00;95953.22;5053978;28;20723;-81
2023/01/25 04:09:00;;;;;;;4.90;4.30;;;;;;;2.44;100.00;95939.38;5053499;28;20499;-81
2023/01/25 04:11:27;;;;;;;3.80;3.20;;;;;;;2.61;100.00;95950.88;5055150;28;20445;-81
2023/01/25 04:13:54;;;;;;;4.60;3.70;;;;;;;2.63;100.00;95946.50;5053641;28;20446;-82
2023/01/25 04:16:21;;;;;;;3.70;3.17;;;;;;;2.68;100.00;95948.00;5053044;28;20939;-81
2023/01/25 04:18:48;;;;;;;4.87;4.03;;;;;;;2.72;100.00;95939.22;5053438;28;20453;-81
2023/01/25 04:21:15;;;;;;;4.70;3.80;;;;;;;2.78;100.00;95946.75;5053056;28;20449;-81
2023/01/25 04:23:41;;;;;;;6.33;4.80;;;;;;;2.74;100.00;95941.75;5053241;28;20956;-81
2023/01/25 04:26:11;;;;;;;6.87;4.63;;;;;;;2.71;100.00;95947.88;5053229;28;20476;-81
2023/01/25 04:28:38;;;;;;;8.70;4.10;;;;;;;2.64;100.00;95953.34;5001380;28;20481;-81
2023/01/25 04:31:05;;;;;;;3.63;3.10;;;;;;;2.38;100.00;95941.34;5053261;28;20453;-81
2023/01/25 04:33:32;;;;;;;3.37;3.07;;;;;;;2.49;100.00;95954.75;5052855;28;20793;-81
2023/01/25 04:35:59;;;;;;;3.77;3.47;;;;;;;2.48;100.00;95955.66;5052633;28;20848;-81
2023/01/25 04:38:26;;;;;;;5.10;4.37;;;;;;;2.39;100.00;95961.16;5053045;28;20457;-81
2023/01/25 04:40:53;;;;;;;5.27;3.40;;;;;;;2.24;100.00;95962.53;5052539;28;20940;-81
2023/01/25 04:43:21;;;;;;;3.10;2.90;;;;;;;2.29;100.00;95962.38;5052836;28;20461;-81
2023/01/25 04:45:48;;;;;;;6.10;3.57;;;;;;;2.24;100.00;95952.19;5058722;28;20449;-79
2023/01/25 04:48:15;;;;;;;8.17;5.03;;;;;;;2.31;100.00;95953.66;5054524;28;20473;-81
2023/01/25 04:50:43;;;;;;;3.47;2.80;;;;;;;2.14;100.00;95956.00;5052342;28;20791;-81
2023/01/25 04:53:11;;;;;;;2.45;2.25;;;;;;;2.00;100.00;95955.63;5052657;28;20920;-81
2023/01/25 04:55:39;;;;;;;3.00;2.63;;;;;;;1.95;100.00;95949.75;5053861;28;20218;-79
2023/01/25 04:58:06;;;;;;;3.30;2.90;;;;;;;1.89;100.00;95950.81;5053000;28;20832;-81
2023/01/25 05:00:34;;;;;;;6.53;3.80;;;;;;;2.09;100.00;95963.09;5052502;28;20453;-81
2023/01/25 05:03:00;;;;;;;5.60;3.33;;;;;;;1.93;100.00;95951.56;5052839;28;20433;-81
2023/01/25 05:05:27;;;;;;;8.37;4.07;;;;;;;1.93;100.00;95955.00;5052636;28;20449;-80
2023/01/25 05:07:54;;;;;;;4.63;3.40;;;;;;;2.00;100.00;95947.84;5052496;28;20481;-81
2023/01/25 05:10:21;;;;;;;6.47;3.77;;;;;;;2.14;100.00;95950.81;5052254;28;20505;-80
2023/01/25 05:12:48;;;;;;;7.67;5.07;;;;;;;2.05;100.00;95952.00;5052495;28;20499;-84
2023/01/25 05:15:15;;;;;;;4.97;3.70;;;;;;;2.10;100.00;95950.09;5053391;28;20440;-84
2023/01/25 05:17:44;;;;;;;4.00;3.10;;;;;;;2.05;100.00;95944.22;5020010;28;20197;-90
2023/01/25 05:20:12;;;;;;;5.50;2.90;;;;;;;2.32;100.00;95947.59;5055623;28;20445;-89
2023/01/25 05:22:38;;;;;;;13.80;6.23;;;;;;;2.44;100.00;95939.38;5052845;28;20473;-80
2023/01/25 05:26:59;;;;;;;5.20;3.83;;;;;;;2.61;100.00;95945.69;5051409;28;20476;-79
2023/01/25 05:27:52;;;;;;;3.87;3.43;;;;;;;2.43;100.00;95953.22;5032160;28;20473;-79
2023/01/25 05:30:18;;;;;;;5.30;3.60;;;;;;;2.26;100.00;95945.19;5033908;28;20446;-79
2023/01/25 05:32:48;;;;;;;4.53;3.67;;;;;;;2.24;100.00;95949.59;4997044;28;20249;-79
2023/01/25 05:35:15;;;;;;;4.93;4.30;;;;;;;2.33;100.00;95946.69;5033429;28;20473;-80
2023/01/25 05:37:41;;;;;;;4.53;4.00;;;;;;;2.25;100.00;95953.03;5033086;28;20454;-79
2023/01/25 05:40:09;;;;;;;5.57;4.00;;;;;;;2.22;100.00;95953.13;5032927;28;20446;-79
2023/01/25 05:42:36;;;;;;;3.90;3.60;;;;;;;2.31;100.00;95945.88;5032810;28;20446;-79
2023/01/25 05:45:03;;;;;;;6.60;4.50;;;;;;;2.25;100.00;95953.88;5031837;28;20452;-78
2023/01/25 05:47:30;;;;;;;7.33;6.03;;;;;;;2.17;100.00;95954.16;4997266;28;20485;-80
2023/01/25 05:49:58;;;;;;;5.10;4.60;;;;;;;2.33;100.00;95954.47;5032459;28;20496;-79
2023/01/25 05:52:25;;;;;;;4.10;3.70;;;;;;;2.26;100.00;95958.16;5032058;28;20446;-79
2023/01/25 05:54:52;;;;;;;6.33;4.93;;;;;;;2.39;100.00;95951.66;5032259;28;20805;-80
2023/01/25 05:57:18;;;;;;;4.17;3.70;;;;;;;2.20;100.00;95955.78;5032103;28;20576;-80
2023/01/25 05:59:45;;;;;;;7.53;4.83;;;;;;;2.07;100.00;95955.38;5031874;28;20446;-80
2023/01/25 06:02:12;;;;;;;5.37;3.60;;;;;;;2.23;100.00;95953.09;4980984;28;20451;-80
2023/01/25 06:04:39;;;;;;;5.50;4.03;;;;;;;2.10;100.00;95954.44;4997028;28;20438;-80
2023/01/25 06:07:07;;;;;;;7.67;5.03;;;;;;;2.12;100.00;95955.22;5031692;28;20449;-81
2023/01/25 06:09:34;;;;;;;7.43;4.03;;;;;;;2.21;100.00;95946.28;5031937;28;20458;-80
2023/01/25 06:12:02;;;;;;;5.07;3.83;;;;;;;2.16;100.00;95954.19;5031629;28;20438;-81
2023/01/25 06:14:29;;;;;;;7.80;4.33;;;;;;;2.35;100.00;95957.84;5031850;28;20496;-80
2023/01/25 06:16:56;;;;;;;5.00;4.37;;;;;;;2.38;100.00;95962.06;5031647;28;20446;-80
2023/01/25 06:19:22;;;;;;;5.70;4.53;;;;;;;2.40;100.00;95960.25;5031816;28;20492;-80
2023/01/25 06:21:50;;;;;;;6.47;4.70;;;;;;;2.28;100.00;95969.28;5013286;28;20454;-81
2023/01/25 06:24:18;;;;;;;6.00;4.30;;;;;;;2.25;100.00;95971.16;5031918;28;20449;-80
2023/01/25 06:26:45;;;;;;;8.00;6.53;;;;;;;2.23;100.00;95966.03;5034428;28;20873;-80
2023/01/25 06:29:12;;;;;;;7.07;5.30;;;;;;;2.32;100.00;95964.88;5035188;28;20909;-79
2023/01/25 06:31:38;;;;;;;6.30;5.33;;;;;;;2.33;100.00;95980.38;5035665;28;20636;-80
2023/01/25 06:34:06;;;;;;;6.07;4.77;;;;;;;2.28;100.00;95971.03;5009781;28;20504;-79
2023/01/25 06:36:33;;;;;;;8.90;5.93;;;;;;;2.38;100.00;95972.44;5056024;28;20440;-80
2023/01/25 06:39:01;;;;;;;12.10;5.53;;;;;;;2.36;100.00;95969.91;5046736;28;20604;-80
2023/01/25 06:41:29;;;;;;;7.90;6.03;;;;;;;2.43;100.00;95966.19;5043100;28;20442;-81
2023/01/25 06:43:56;;;;;;;9.87;6.40;;;;;;;2.48;100.00;95968.59;5052432;28;20454;-80
2023/01/25 06:46:23;;;;;;;8.90;6.87;;;;;;;2.62;100.00;95962.94;5035924;28;20915;-79
2023/01/25 06:48:50;;;;;;;6.47;5.13;;;;;;;2.71;100.00;95960.84;5017637;28;20532;-79
2023/01/25 06:51:17;;;;;;;11.20;6.20;;;;;;;2.86;100.00;95961.16;5036097;28;20457;-82
2023/01/25 06:53:45;;;;;;;7.80;6.13;;;;;;;2.77;100.00;95963.19;5018086;28;20447;-79
2023/01/25 06:56:14;;;;;;;5.80;4.97;;;;;;;2.79;100.00;95960.53;5005128;28;20446;-79
2023/01/25 06:58:42;;;;;;;6.93;5.77;;;;;;;2.74;100.00;95965.06;5051551;28;20441;-80
2023/01/25 07:01:12;;;;;;;5.83;5.20;;;;;;;2.68;100.00;95968.72;5053700;28;20453;-79
2023/01/25 07:03:40;;;;;;;8.20;5.03;;;;;;;2.64;99.76;95967.16;5036062;28;20454;-80
2023/01/25 07:06:08;;;;;;;7.17;6.23;;;;;;;3.67;100.00;95951.91;5043285;28;20449;-80
2023/01/25 07:08:36;;;;;;;7.13;5.50;;;;;;;3.21;100.00;95963.28;5054405;28;20493;-80
2023/01/25 07:11:05;;;;;;;6.90;5.50;;;;;;;3.14;100.00;95968.75;5035803;28;20450;-81
2023/01/25 07:13:33;;;;;;;9.00;6.13;;;;;;;3.01;100.00;95956.25;5036059;28;20450;-81
2023/01/25 07:16:04;;;;;;;8.20;6.43;;;;;;;3.11;99.28;95956.72;5035985;28;20442;-79
2023/01/25 07:18:32;;;;;;;7.53;5.40;;;;;;;3.01;99.93;95963.19;5037280;28;20458;-81
2023/01/25 07:21:03;;;;;;;9.63;6.33;;;;;;;3.06;99.77;95963.84;5045835;28;21190;-82
2023/01/25 07:23:32;;;;;;;6.87;5.20;;;;;;;2.89;100.00;95958.44;5036866;28;20457;-83
2023/01/25 07:25:59;;;;;;;7.47;6.23;;;;;;;2.86;99.86;95972.38;5048076;28;20507;-84
2023/01/25 07:28:26;;;;;;;8.97;6.03;;;;;;;2.85;100.00;95975.03;5043992;28;20496;-83
2023/01/25 07:30:53;;;;;;;13.10;7.50;;;;;;;2.80;100.00;95976.03;5036525;28;20443;-83
2023/01/25 07:33:22;;;;;;;7.63;5.80;;;;;;;2.65;100.00;95981.81;5039003;28;20435;-85
2023/01/25 07:35:49;;;;;;;6.70;5.77;;;;;;;2.62;100.00;95973.31;5003617;28;20454;-84
2023/01/25 07:38:16;;;;;;;11.70;7.17;;;;;;;2.54;100.00;95967.53;5036732;28;20494;-85
2023/01/25 07:40:43;;;;;;;9.07;6.60;;;;;;;2.49;100.00;95965.94;5041042;28;20446;-84
2023/01/25 07:43:10;;;;;;;6.97;5.97;;;;;;;2.46;100.00;95966.06;4984285;28;20442;-82
2023/01/25 07:59:16;;;;;;;12.20;7.50;;;;;;;2.34;100.00;95969.09;5035511;28;20400;-85
2023/01/25 08:01:43;;;;;;;9.73;8.73;;;;;;;2.43;100.00;95978.28;5049524;28;20441;-85
2023/01/25 08:04:10;;;;;;;12.97;8.00;;;;;;;2.44;100.00;95975.63;5051055;28;20953;-86
2023/01/25 08:06:38;;;;;;;6.77;5.40;;;;;;;2.28;100.00;95982.25;5036967;28;20473;-85
2023/01/25 08:09:08;;;;;;;9.23;7.20;;;;;;;2.30;100.00;95972.69;5039152;28;20533;-86
2023/01/25 08:11:35;;;;;;;7.77;7.00;;;;;;;2.47;100.00;95969.50;5035125;28;20802;-85
2023/01/25 08:14:02;;;;;;;9.77;7.03;;;;;;;2.48;100.00;95972.03;5039653;28;20538;-84
2023/01/25 08:16:32;;;;;;;9.43;6.90;;;;;;;2.39;100.00;95969.78;5040782;28;20446;-85
2023/01/25 08:19:01;;;;;;;7.90;7.10;;;;;;;2.40;100.00;95963.69;5039880;28;20461;-85
2023/01/25 08:21:31;;;;;;;11.03;7.57;;;;;;;2.57;100.00;95970.00;5037291;28;20829;-86
2023/01/25 08:23:58;;;;;;;11.17;8.03;;;;;;;2.55;100.00;95967.47;5041006;28;20476;-86
2023/01/25 08:26:26;;;;;;;12.53;8.40;;;;;;;2.70;100.00;95971.25;5038528;28;20482;-84
2023/01/25 08:28:54;;;;;;;12.50;8.50;;;;;;;2.80;100.00;95968.25;5040452;28;20901;-85
2023/01/25 08:31:23;;;;;;;13.50;9.50;;;;;;;2.78;100.00;95964.03;5057346;28;20464;-84
2023/01/25 08:33:54;;;;;;;8.60;7.80;;;;;;;2.90;100.00;95962.75;5061743;28;20460;-85
2023/01/25 08:36:22;;;;;;;10.10;7.00;;;;;;;2.92;100.00;95964.38;5056212;28;20449;-85
2023/01/25 08:38:54;;;;;;;16.63;10.43;;;;;;;2.92;100.00;95961.78;5046585;28;20505;-84
2023/01/25 08:41:21;;;;;;;15.97;9.70;;;;;;;2.86;100.00;95958.56;5046596;28;20446;-84
2023/01/25 08:43:48;;;;;;;24.03;13.97;;;;;;;2.90;100.00;95952.38;5044512;28;20465;-84
2023/01/25 08:46:16;;;;;;;20.23;12.97;;;;;;;3.05;100.00;95941.41;5044183;28;20442;-84
2023/01/25 08:48:43;;;;;;;10.37;8.03;;;;;;;2.83;100.00;95951.75;5044276;28;20488;-85
2023/01/25 08:51:14;;;;;;;11.67;8.80;;;;;;;2.86;100.00;95945.59;5042568;28;20442;-82
2023/01/25 08:53:41;;;;;;;15.20;10.43;;;;;;;2.92;100.00;95951.44;5046056;28;20439;-82
2023/01/25 08:56:09;;;;;;;16.90;10.10;;;;;;;2.78;100.00;95961.44;5039780;28;20459;-82
2023/01/25 08:58:38;;;;;;;11.50;8.70;;;;;;;2.85;100.00;95947.34;5041455;28;20485;-82
2023/01/25 09:01:06;;;;;;;15.80;11.13;;;;;;;2.84;100.00;95950.84;5044450;28;20500;-82
2023/01/25 09:03:36;;;;;;;11.30;8.73;;;;;;;2.85;100.00;95952.53;5042766;28;20866;-83
2023/01/25 09:06:03;;;;;;;11.37;8.50;;;;;;;2.94;100.00;95947.03;5049381;28;20836;-81
2023/01/25 09:08:31;;;;;;;15.73;10.33;;;;;;;2.97;100.00;95954.69;5038646;28;20485;-82
2023/01/25 09:11:01;;;;;;;11.63;9.03;;;;;;;2.88;100.00;95952.41;5039014;28;20446;-82
2023/01/25 09:13:28;;;;;;;14.27;10.60;;;;;;;2.99;100.00;95946.84;5040367;28;20928;-82
2023/01/25 09:15:59;;;;;;;16.00;11.40;;;;;;;3.05;100.00;95947.44;5043303;28;20999;-82
2023/01/25 09:18:26;;;;;;;12.77;8.90;;;;;;;2.90;100.00;95937.69;5000908;28;20451;-84
2023/01/25 09:20:53;;;;;;;9.00;7.43;;;;;;;2.85;100.00;95934.41;5024119;28;20517;-83
2023/01/25 09:23:22;;;;;;;10.70;8.00;;;;;;;2.60;100.00;95939.69;5053292;28;20449;-85
2023/01/25 09:25:56;;;;;;;12.40;8.80;;;;;;;2.80;100.00;95936.31;5040638;28;20485;-84
2023/01/25 09:28:23;;;;;;;14.47;8.60;;;;;;;2.74;100.00;95931.38;5044787;28;20536;-85
2023/01/25 09:30:54;;;;;;;12.10;9.83;;;;;;;2.84;100.00;95927.53;4983188;28;20449;-84
2023/01/25 09:33:25;;;;;;;10.87;7.63;;;;;;;2.83;100.00;95941.38;5033695;28;20466;-85
2023/01/25 09:35:51;;;;;;;18.67;11.90;;;;;;;2.87;100.00;95924.81;5039812;28;20517;-84
2023/01/25 09:38:18;;;;;;;13.33;10.13;;;;;;;2.79;100.00;95919.09;5043698;28;20834;-84
2023/01/25 09:40:57;;;;;;;14.13;9.47;;;;;;;3.04;100.00;95919.84;4999041;28;20450;-83
2023/01/25 09:43:38;;;;;;;11.70;8.23;;;;;;;3.05;100.00;95908.56;5017813;28;20456;-84
2023/01/25 09:46:17;;;;;;;10.97;8.27;;;;;;;3.24;100.00;95908.69;5051964;28;20425;-84
2023/01/25 09:48:53;;;;;;;8.83;7.93;;;;;;;3.26;100.00;95906.03;4998676;28;20516;-84
2023/01/25 09:51:26;;;;;;;12.20;8.07;;;;;;;3.33;100.00;95899.69;5033235;28;20446;-84
2023/01/25 09:53:58;;;;;;;7.97;7.17;;;;;;;3.44;100.00;95902.69;5034312;28;20925;-83
2023/01/25 09:56:29;;;;;;;9.57;7.50;;;;;;;3.47;100.00;95892.19;5048742;28;20503;-85
2023/01/25 09:58:59;;;;;;;9.93;7.53;;;;;;;3.63;100.00;95893.25;5053182;28;21488;-84
2023/01/25 10:01:34;;;;;;;8.07;7.27;;;;;;;3.61;100.00;95892.47;5056678;28;20452;-84
2023/01/25 10:04:04;;;;;;;9.33;8.27;;;;;;;3.55;100.00;95886.69;5056894;28;20440;-84
2023/01/25 10:06:38;;;;;;;13.83;8.63;;;;;;;3.54;100.00;95887.59;5056728;28;20996;-85
2023/01/25 10:09:22;;;;;;;17.83;14.33;;;;;;;3.32;100.00;95872.91;5058329;28;20491;-84
2023/01/25 10:11:50;;;;;;;16.47;14.00;;;;;;;3.55;100.00;95874.56;5020525;28;20441;-85
2023/01/25 10:14:20;;;;;;;12.23;10.90;;;;;;;3.77;100.00;95864.13;5055710;28;20448;-85
2023/01/25 10:17:06;;;;;;;9.40;7.90;;;;;;;3.66;97.89;95861.97;5056787;28;20436;-84
2023/01/25 10:19:48;;;;;;;6.83;5.80;;;;;;;3.63;97.50;95869.03;5055516;28;20444;-85
2023/01/25 10:22:19;;;;;;;7.90;6.57;;;;;;;3.65;97.85;95860.28;5055721;28;20452;-85
2023/01/25 10:25:15;;;;;;;9.00;6.77;;;;;;;3.62;97.98;95850.03;5055440;28;20492;-84
2023/01/25 10:27:54;;;;;;;9.93;6.83;;;;;;;3.60;96.97;95846.66;5055255;28;20449;-85
2023/01/25 10:30:27;;;;;;;7.67;6.40;;;;;;;3.47;96.30;95855.88;5054952;28;20527;-84
2023/01/25 10:32:58;;;;;;;11.67;8.30;;;;;;;3.62;96.35;95855.22;5055588;28;20453;-85
2023/01/25 10:35:29;;;;;;;11.43;8.40;;;;;;;3.63;96.43;95843.09;5055336;28;20948;-85
2023/01/25 10:38:01;;;;;;;15.37;8.97;;;;;;;3.65;96.39;95836.94;5055243;28;20449;-85
2023/01/25 10:40:42;;;;;;;12.93;9.27;;;;;;;3.69;96.48;95838.47;5004012;28;20456;-84
2023/01/25 10:43:17;;;;;;;9.80;7.53;;;;;;;3.61;96.38;95837.97;5055399;28;20460;-84
2023/01/25 10:45:44;;;;;;;11.40;8.03;;;;;;;3.72;96.80;95833.16;5055257;28;20918;-85
2023/01/25 10:48:17;;;;;;;8.23;6.67;;;;;;;3.68;95.68;95831.59;5055373;28;20445;-85
2023/01/25 10:50:47;;;;;;;9.07;6.23;;;;;;;3.67;94.93;95832.50;5055662;28;20857;-85
2023/01/25 10:53:26;;;;;;;5.97;5.37;;;;;;;3.47;95.31;95829.06;5055203;28;20450;-85
2023/01/25 10:56:00;;;;;;;10.53;6.57;;;;;;;3.48;94.60;95815.22;5054868;28;21023;-84
2023/01/25 10:58:40;;;;;;;9.30;7.23;;;;;;;3.60;96.45;95810.34;5056192;28;20445;-84
2023/01/25 11:01:09;;;;;;;13.93;7.47;;;;;;;3.72;96.19;95803.75;5055877;28;20460;-84
2023/01/25 11:03:38;;;;;;;7.67;5.77;;;;;;;3.73;95.61;95797.66;5020049;28;20456;-85
2023/01/25 11:06:06;;;;;;;11.40;7.00;;;;;;;3.79;94.17;95801.75;5054785;28;20449;-84
2023/01/25 11:08:35;;;;;;;10.70;7.00;;;;;;;3.87;94.25;95808.28;5054945;28;20445;-85
2023/01/25 11:11:22;;;;;;;9.73;6.57;;;;;;;3.86;93.47;95805.78;5054169;28;20935;-85
2023/01/25 11:13:51;;;;;;;6.70;5.97;;;;;;;3.83;92.20;95805.91;5055121;28;20453;-86
2023/01/25 11:16:33;;;;;;;5.47;4.70;;;;;;;3.72;93.11;95799.41;5054771;28;20452;-85
2023/01/25 11:19:02;;;;;;;6.27;5.10;;;;;;;3.77;92.86;95795.78;5054563;28;20449;-85
2023/01/25 11:21:31;;;;;;;7.30;5.43;;;;;;;3.82;93.28;95802.47;5054458;28;20457;-84
2023/01/25 11:24:04;;;;;;;7.80;5.50;;;;;;;3.80;92.90;95793.06;5055151;28;21015;-86
2023/01/25 11:26:33;;;;;;;6.93;5.70;;;;;;;3.74;94.50;95782.00;5056460;28;20485;-84
2023/01/25 11:29:12;;;;;;;10.90;6.30;;;;;;;3.79;93.76;95781.84;5054338;28;20988;-85
2023/01/25 11:31:44;;;;;;;5.00;4.53;;;;;;;3.64;93.07;95783.34;5054725;28;20433;-85
2023/01/25 11:34:19;;;;;;;5.30;4.70;;;;;;;3.71;92.86;95776.13;5020639;28;20488;-84
2023/01/25 11:36:57;;;;;;;6.73;5.40;;;;;;;3.83;92.89;95770.41;5055243;28;20951;-85
2023/01/25 11:39:42;;;;;;;6.10;4.63;;;;;;;3.85;93.80;95773.78;5055950;28;20446;-85
2023/01/25 11:42:26;;;;;;;9.70;6.90;;;;;;;3.88;92.82;95768.44;5055386;28;20445;-84
2023/01/25 11:45:44;;;;;;;12.00;8.40;;;;;;;3.90;93.50;95760.59;5020821;28;20444;-84
2023/01/25 11:48:38;;;;;;;6.03;5.17;;;;;;;3.76;92.54;95756.03;5055303;28;20451;-85
2023/01/25 11:51:09;;;;;;;7.70;5.80;;;;;;;3.78;92.11;95745.56;5053048;28;20511;-85
2023/01/25 11:53:51;;;;;;;5.90;5.30;;;;;;;3.70;92.69;95743.28;5054555;28;20444;-85
2023/01/25 11:56:28;;;;;;;8.03;7.03;;;;;;;3.58;93.43;95734.31;5055121;28;20441;-85